Sandpoint, ID (83865)

10:59 PM PDT on September 30, 2014 (GMT -0700)
Selle Valley | Change Station
CLOSE
Current Station
Personal Weather Station
Location: Sandpoint, ID
Elevation: 661 m
Nearby Weather Stations

Elev 661 m 48.38 °N, 116.48 °W | Updated 1 minute ago

Partly Cloudy
Partly Cloudy
4.2 °C
Feels Like 4 °C
N
0.0
Wind Variable Wind from WSW
Gusts 0.0 km/h

Today
High -- | Low -- °C
--% Chance of Precip.
Yesterday
High -- | Low -- °C
Precip. -- mm
6:44 AM 6:27 PM
Waxing Crescent, 44% visible
Pressure 1015 hPa
Visibility 2.4 kilometers
Clouds Scattered Clouds 30 m
Windchill 4 °C
Dew Point 4 °C
Humidity 97%
Rainfall 1 mm
Snow Depth 1 in , 0 in , 0 in
UV 0 out of 12
Pollen 4.90 out of 12
Air Quality Not available.
Flu Activity Not available.
METAR KSZT 010535Z AUTO 00000KT 1 1/2SM BR SCT001 03/03 A2998 RMK AO2 VIS 1/2V5

More Conditions Fewer Conditions

Pressure 1015 hPa
Visibility 2.4 kilometers
Clouds Scattered Clouds 30 m
Windchill 4 °C
Dew Point 4 °C
Humidity 97%
Rainfall 1 mm
Snow Depth 1 in , 0 in , 0 in
UV 0 out of 12
Pollen 4.90 out of 12
Air Quality Not available.
Flu Activity Not available.
METAR KSZT 010535Z AUTO 00000KT 1 1/2SM BR SCT001 03/03 A2998 RMK AO2 VIS 1/2V5

More Conditions Fewer Conditions

10-Day Weather Forecast

Almanac

Astronomy

Sep. 30, 2014 Rise Set
Actual Time 6:44 AM PDT 6:27 PM PDT
Civil Twilight 6:13 AM PDT 6:58 PM PDT
Nautical Twilight 5:36 AM PDT 7:34 PM PDT
Astronomical Twilight 4:59 AM PDT 8:11 PM PDT
Moon 1:17 PM PDT (9/30) 10:40 PM PDT (9/30)
Length of Visible Light 12h 45m
Length of Day
11h 42m
Tomorrow will be 3m 30s shorter.
Waxing Crescent, 44% of the Moon is Illuminated
Oct 1
Waxing Crescent
Oct 1
First Quarter
Oct 8
Full
Oct 15
Last Quarter
Oct 23
New

Yesterday's Extremes

State Highs State Lows

Community

WunderPhotos

Upload Photos

1,757,875 photos uploaded!

Nearby

Snow Depth

Station Depth Elevation
Hyndman 1 in 7440 ft
Bear Basin 0 in 5350 ft
Moscow Mountain 0 in 4700 ft
Camas Creek Divide 1 in 5710 ft
Hemlock Butte 1 in 5810 ft

Earthquake Activity

City Distance Mag. Time & Date
No recent earthquake activity has been reported nearby.
Minimum magnitude displayed is 2.5.

Coastal Water Temperatures

Place Temperature
No Stations Reporting

Nearby Weather Stations